sensor_id;sensor_type;location;lat;lon;timestamp;pressure;altitude;pressure_sealevel;temperature;humidity
61963;BME280;47927;42.646;23.096;2022-07-17T00:00:12;92625.59;;;21.81;48.73
61963;BME280;47927;42.646;23.096;2022-07-17T00:05:04;92635.22;;;21.75;48.31
61963;BME280;47927;42.646;23.096;2022-07-17T00:07:30;92625.94;;;21.83;47.87
61963;BME280;47927;42.646;23.096;2022-07-17T00:09:55;92637.38;;;21.80;47.58
61963;BME280;47927;42.646;23.096;2022-07-17T00:14:46;92628.91;;;21.85;47.39
61963;BME280;47927;42.646;23.096;2022-07-17T00:17:12;92633.94;;;21.96;46.90
61963;BME280;47927;42.646;23.096;2022-07-17T00:19:38;92637.28;;;22.13;46.36
61963;BME280;47927;42.646;23.096;2022-07-17T00:22:03;92628.72;;;22.22;46.06
61963;BME280;47927;42.646;23.096;2022-07-17T00:24:29;92631.47;;;22.18;46.16
61963;BME280;47927;42.646;23.096;2022-07-17T00:26:54;92623.69;;;22.11;46.34
61963;BME280;47927;42.646;23.096;2022-07-17T00:29:20;92624.81;;;22.26;45.90
61963;BME280;47927;42.646;23.096;2022-07-17T00:31:46;92630.78;;;22.14;45.99
61963;BME280;47927;42.646;23.096;2022-07-17T00:34:11;92621.75;;;22.41;45.76
61963;BME280;47927;42.646;23.096;2022-07-17T00:36:37;92630.38;;;22.16;45.55
61963;BME280;47927;42.646;23.096;2022-07-17T00:39:03;92614.53;;;22.41;44.85
61963;BME280;47927;42.646;23.096;2022-07-17T00:41:29;92622.19;;;22.52;44.98
61963;BME280;47927;42.646;23.096;2022-07-17T00:44:02;92637.34;;;22.10;45.52
61963;BME280;47927;42.646;23.096;2022-07-17T00:46:28;92639.13;;;22.00;45.82
61963;BME280;47927;42.646;23.096;2022-07-17T00:48:54;92639.25;;;22.38;44.82
61963;BME280;47927;42.646;23.096;2022-07-17T00:51:19;92647.78;;;22.46;44.47
61963;BME280;47927;42.646;23.096;2022-07-17T00:53:46;92644.34;;;22.33;44.66
61963;BME280;47927;42.646;23.096;2022-07-17T00:56:12;92641.31;;;22.47;43.99
61963;BME280;47927;42.646;23.096;2022-07-17T00:58:38;92634.28;;;22.53;43.60
61963;BME280;47927;42.646;23.096;2022-07-17T01:01:05;92634.19;;;22.69;43.43
61963;BME280;47927;42.646;23.096;2022-07-17T01:03:34;92637.28;;;22.81;43.01
61963;BME280;47927;42.646;23.096;2022-07-17T01:06:00;92634.63;;;22.81;42.13
61963;BME280;47927;42.646;23.096;2022-07-17T01:08:26;92640.16;;;22.61;42.67
61963;BME280;47927;42.646;23.096;2022-07-17T01:10:51;92643.00;;;22.66;42.42
61963;BME280;47927;42.646;23.096;2022-07-17T01:13:17;92650.97;;;22.66;42.78
61963;BME280;47927;42.646;23.096;2022-07-17T01:15:44;92644.16;;;22.11;44.21
61963;BME280;47927;42.646;23.096;2022-07-17T01:18:11;92642.59;;;22.13;44.58
61963;BME280;47927;42.646;23.096;2022-07-17T01:20:38;92636.66;;;22.22;43.01
61963;BME280;47927;42.646;23.096;2022-07-17T01:23:05;92635.53;;;22.36;42.43
61963;BME280;47927;42.646;23.096;2022-07-17T01:25:31;92632.38;;;22.41;42.40
61963;BME280;47927;42.646;23.096;2022-07-17T01:27:57;92632.78;;;22.39;42.34
61963;BME280;47927;42.646;23.096;2022-07-17T01:30:23;92647.22;;;22.38;42.60
61963;BME280;47927;42.646;23.096;2022-07-17T01:32:49;92642.97;;;22.28;43.14
61963;BME280;47927;42.646;23.096;2022-07-17T01:35:15;92646.13;;;22.23;45.01
61963;BME280;47927;42.646;23.096;2022-07-17T01:37:42;92641.91;;;22.09;45.12
61963;BME280;47927;42.646;23.096;2022-07-17T01:40:09;92645.63;;;21.99;44.71
61963;BME280;47927;42.646;23.096;2022-07-17T01:42:38;92648.66;;;21.68;46.04
61963;BME280;47927;42.646;23.096;2022-07-17T01:45:05;92653.81;;;21.59;45.59
61963;BME280;47927;42.646;23.096;2022-07-17T01:47:31;92654.09;;;21.48;45.38
61963;BME280;47927;42.646;23.096;2022-07-17T01:49:57;92648.78;;;21.48;46.49
61963;BME280;47927;42.646;23.096;2022-07-17T01:52:24;92658.63;;;21.31;45.82
61963;BME280;47927;42.646;23.096;2022-07-17T01:54:50;92655.31;;;21.27;46.80
61963;BME280;47927;42.646;23.096;2022-07-17T01:57:16;92649.91;;;21.14;47.50
61963;BME280;47927;42.646;23.096;2022-07-17T01:59:42;92649.84;;;21.02;47.50
61963;BME280;47927;42.646;23.096;2022-07-17T02:02:09;92648.75;;;20.83;48.92
61963;BME280;47927;42.646;23.096;2022-07-17T02:04:36;92655.91;;;20.66;47.66
61963;BME280;47927;42.646;23.096;2022-07-17T02:07:03;92647.75;;;20.77;47.33
61963;BME280;47927;42.646;23.096;2022-07-17T02:09:30;92658.44;;;20.89;48.15
61963;BME280;47927;42.646;23.096;2022-07-17T02:11:56;92652.78;;;20.87;46.35
61963;BME280;47927;42.646;23.096;2022-07-17T02:14:22;92656.22;;;21.04;47.74
61963;BME280;47927;42.646;23.096;2022-07-17T02:16:48;92652.50;;;21.18;46.10
61963;BME280;47927;42.646;23.096;2022-07-17T02:19:14;92645.13;;;21.09;46.29
61963;BME280;47927;42.646;23.096;2022-07-17T02:21:40;92647.50;;;20.87;46.61
61963;BME280;47927;42.646;23.096;2022-07-17T02:24:05;92647.28;;;20.98;46.61
61963;BME280;47927;42.646;23.096;2022-07-17T02:26:32;92650.06;;;20.91;47.28
61963;BME280;47927;42.646;23.096;2022-07-17T02:28:57;92647.41;;;20.75;47.79
61963;BME280;47927;42.646;23.096;2022-07-17T02:31:23;92649.13;;;20.65;47.31
61963;BME280;47927;42.646;23.096;2022-07-17T02:33:49;92640.38;;;20.48;48.15
61963;BME280;47927;42.646;23.096;2022-07-17T02:36:14;92648.66;;;20.50;48.48
61963;BME280;47927;42.646;23.096;2022-07-17T02:38:40;92655.16;;;20.25;49.76
61963;BME280;47927;42.646;23.096;2022-07-17T02:41:05;92637.69;;;20.12;50.25
61963;BME280;47927;42.646;23.096;2022-07-17T02:43:31;92652.69;;;19.75;51.53
61963;BME280;47927;42.646;23.096;2022-07-17T02:45:57;92650.56;;;19.90;51.13
61963;BME280;47927;42.646;23.096;2022-07-17T02:48:23;92647.66;;;20.04;51.27
61963;BME280;47927;42.646;23.096;2022-07-17T02:50:48;92649.34;;;20.14;51.28
61963;BME280;47927;42.646;23.096;2022-07-17T02:53:14;92645.16;;;20.17;50.95
61963;BME280;47927;42.646;23.096;2022-07-17T02:55:39;92650.84;;;20.15;52.66
61963;BME280;47927;42.646;23.096;2022-07-17T02:58:05;92650.50;;;20.13;52.14
61963;BME280;47927;42.646;23.096;2022-07-17T03:00:30;92654.78;;;20.27;50.65
61963;BME280;47927;42.646;23.096;2022-07-17T03:02:56;92659.09;;;20.37;49.08
61963;BME280;47927;42.646;23.096;2022-07-17T03:05:22;92665.28;;;20.51;48.22
61963;BME280;47927;42.646;23.096;2022-07-17T03:07:48;92667.66;;;20.45;49.14
61963;BME280;47927;42.646;23.096;2022-07-17T03:10:13;92671.94;;;20.39;49.22
61963;BME280;47927;42.646;23.096;2022-07-17T03:12:40;92665.22;;;20.54;48.15
61963;BME280;47927;42.646;23.096;2022-07-17T03:15:06;92669.97;;;20.63;48.03
61963;BME280;47927;42.646;23.096;2022-07-17T03:17:32;92677.56;;;20.61;48.64
61963;BME280;47927;42.646;23.096;2022-07-17T03:19:58;92670.50;;;20.34;50.18
61963;BME280;47927;42.646;23.096;2022-07-17T03:22:23;92677.09;;;20.26;50.69
61963;BME280;47927;42.646;23.096;2022-07-17T03:24:49;92682.03;;;20.04;50.26
61963;BME280;47927;42.646;23.096;2022-07-17T03:27:14;92688.44;;;19.83;51.34
61963;BME280;47927;42.646;23.096;2022-07-17T03:29:40;92688.44;;;19.83;51.54
61963;BME280;47927;42.646;23.096;2022-07-17T03:32:06;92697.53;;;19.82;51.31
61963;BME280;47927;42.646;23.096;2022-07-17T03:34:31;92691.53;;;19.78;51.34
61963;BME280;47927;42.646;23.096;2022-07-17T03:36:57;92691.22;;;19.76;52.20
61963;BME280;47927;42.646;23.096;2022-07-17T03:39:22;92689.97;;;19.84;52.58
61963;BME280;47927;42.646;23.096;2022-07-17T03:41:48;92704.25;;;19.87;52.47
61963;BME280;47927;42.646;23.096;2022-07-17T03:44:14;92704.81;;;19.98;51.55
61963;BME280;47927;42.646;23.096;2022-07-17T03:46:39;92701.03;;;19.99;50.79
61963;BME280;47927;42.646;23.096;2022-07-17T03:49:05;92700.56;;;20.24;50.85
61963;BME280;47927;42.646;23.096;2022-07-17T03:51:31;92701.84;;;20.36;51.50
61963;BME280;47927;42.646;23.096;2022-07-17T03:53:56;92699.00;;;20.46;51.16
61963;BME280;47927;42.646;23.096;2022-07-17T03:56:22;92710.63;;;20.53;50.62
61963;BME280;47927;42.646;23.096;2022-07-17T03:58:48;92716.97;;;20.75;50.35
61963;BME280;47927;42.646;23.096;2022-07-17T04:01:13;92707.44;;;20.98;48.98
61963;BME280;47927;42.646;23.096;2022-07-17T04:03:39;92717.81;;;21.25;49.48
61963;BME280;47927;42.646;23.096;2022-07-17T04:06:04;92705.44;;;21.54;46.89
61963;BME280;47927;42.646;23.096;2022-07-17T04:08:30;92714.22;;;22.13;44.94
61963;BME280;47927;42.646;23.096;2022-07-17T04:10:56;92716.22;;;22.67;45.76
61963;BME280;47927;42.646;23.096;2022-07-17T04:13:21;92703.41;;;23.04;43.65
61963;BME280;47927;42.646;23.096;2022-07-17T04:15:47;92716.06;;;23.77;42.25
61963;BME280;47927;42.646;23.096;2022-07-17T04:18:19;92709.00;;;24.18;41.14
61963;BME280;47927;42.646;23.096;2022-07-17T04:20:46;92717.75;;;24.62;40.00
61963;BME280;47927;42.646;23.096;2022-07-17T04:23:11;92721.94;;;24.94;39.55
61963;BME280;47927;42.646;23.096;2022-07-17T04:25:38;92719.75;;;25.33;39.07
61963;BME280;47927;42.646;23.096;2022-07-17T04:28:04;92726.16;;;25.95;37.40
61963;BME280;47927;42.646;23.096;2022-07-17T04:30:29;92729.88;;;26.62;34.79
61963;BME280;47927;42.646;23.096;2022-07-17T04:32:55;92739.84;;;27.31;34.91
61963;BME280;47927;42.646;23.096;2022-07-17T04:35:21;92734.09;;;27.14;35.23
61963;BME280;47927;42.646;23.096;2022-07-17T04:37:46;92731.19;;;26.85;36.24
61963;BME280;47927;42.646;23.096;2022-07-17T04:40:12;92729.44;;;26.08;36.18
61963;BME280;47927;42.646;23.096;2022-07-17T04:42:37;92732.38;;;25.82;37.37
61963;BME280;47927;42.646;23.096;2022-07-17T04:45:04;92749.47;;;26.40;38.01
61963;BME280;47927;42.646;23.096;2022-07-17T04:47:30;92749.22;;;26.56;36.29
61963;BME280;47927;42.646;23.096;2022-07-17T04:49:56;92743.69;;;26.32;35.74
61963;BME280;47927;42.646;23.096;2022-07-17T04:52:21;92745.00;;;26.74;38.19
61963;BME280;47927;42.646;23.096;2022-07-17T04:54:47;92745.13;;;26.89;37.17
61963;BME280;47927;42.646;23.096;2022-07-17T04:57:13;92747.75;;;27.59;34.21
61963;BME280;47927;42.646;23.096;2022-07-17T04:59:38;92750.44;;;27.25;35.53
61963;BME280;47927;42.646;23.096;2022-07-17T05:02:04;92754.06;;;26.86;34.30
61963;BME280;47927;42.646;23.096;2022-07-17T05:04:30;92752.59;;;26.39;33.97
61963;BME280;47927;42.646;23.096;2022-07-17T05:06:55;92748.59;;;25.57;36.67
61963;BME280;47927;42.646;23.096;2022-07-17T05:09:21;92752.88;;;26.13;34.52
61963;BME280;47927;42.646;23.096;2022-07-17T05:11:47;92753.91;;;26.89;33.46
61963;BME280;47927;42.646;23.096;2022-07-17T05:14:13;92759.19;;;27.26;32.38
61963;BME280;47927;42.646;23.096;2022-07-17T05:16:38;92761.75;;;27.87;31.66
61963;BME280;47927;42.646;23.096;2022-07-17T05:19:04;92762.88;;;28.82;30.33
61963;BME280;47927;42.646;23.096;2022-07-17T05:21:30;92769.09;;;29.33;28.45
61963;BME280;47927;42.646;23.096;2022-07-17T05:23:56;92754.63;;;30.15;27.53
61963;BME280;47927;42.646;23.096;2022-07-17T05:26:21;92769.03;;;31.31;25.66
61963;BME280;47927;42.646;23.096;2022-07-17T05:28:47;92773.84;;;33.10;23.38
61963;BME280;47927;42.646;23.096;2022-07-17T05:31:12;92772.56;;;35.24;19.94
61963;BME280;47927;42.646;23.096;2022-07-17T05:33:38;92788.78;;;37.20;18.91
61963;BME280;47927;42.646;23.096;2022-07-17T05:36:04;92786.97;;;38.93;16.45
61963;BME280;47927;42.646;23.096;2022-07-17T05:38:29;92787.75;;;40.20;15.36
61963;BME280;47927;42.646;23.096;2022-07-17T05:40:55;92798.94;;;40.37;15.61
61963;BME280;47927;42.646;23.096;2022-07-17T05:43:21;92796.44;;;39.90;15.09
61963;BME280;47927;42.646;23.096;2022-07-17T05:45:46;92801.28;;;40.33;14.42
61963;BME280;47927;42.646;23.096;2022-07-17T05:48:12;92800.31;;;41.93;13.82
61963;BME280;47927;42.646;23.096;2022-07-17T05:50:37;92799.22;;;41.65;13.34
61963;BME280;47927;42.646;23.096;2022-07-17T05:53:03;92805.03;;;42.31;13.40
61963;BME280;47927;42.646;23.096;2022-07-17T05:55:28;92804.09;;;42.21;12.67
61963;BME280;47927;42.646;23.096;2022-07-17T05:57:54;92802.94;;;43.10;12.32
61963;BME280;47927;42.646;23.096;2022-07-17T06:00:20;92798.78;;;43.67;11.65
61963;BME280;47927;42.646;23.096;2022-07-17T06:02:45;92802.34;;;42.87;12.22
61963;BME280;47927;42.646;23.096;2022-07-17T06:05:11;92806.50;;;42.09;12.42
61963;BME280;47927;42.646;23.096;2022-07-17T06:07:37;92811.63;;;42.13;12.62
61963;BME280;47927;42.646;23.096;2022-07-17T06:10:04;92809.41;;;42.03;12.49
61963;BME280;47927;42.646;23.096;2022-07-17T06:12:30;92800.13;;;40.57;13.86
61963;BME280;47927;42.646;23.096;2022-07-17T06:14:56;92802.31;;;42.31;13.07
61963;BME280;47927;42.646;23.096;2022-07-17T06:17:21;92804.09;;;42.99;12.44
61963;BME280;47927;42.646;23.096;2022-07-17T06:19:47;92801.44;;;42.76;11.49
61963;BME280;47927;42.646;23.096;2022-07-17T06:22:20;92806.47;;;42.95;12.00
61963;BME280;47927;42.646;23.096;2022-07-17T06:24:47;92816.34;;;42.35;11.81
61963;BME280;47927;42.646;23.096;2022-07-17T06:27:13;92811.28;;;43.60;11.03
61963;BME280;47927;42.646;23.096;2022-07-17T06:29:38;92811.91;;;44.01;11.40
61963;BME280;47927;42.646;23.096;2022-07-17T06:32:04;92808.75;;;42.82;12.04
61963;BME280;47927;42.646;23.096;2022-07-17T06:34:30;92820.25;;;44.98;10.25
61963;BME280;47927;42.646;23.096;2022-07-17T06:36:55;92816.75;;;45.69;9.57
61963;BME280;47927;42.646;23.096;2022-07-17T06:39:21;92814.03;;;44.97;10.18
61963;BME280;47927;42.646;23.096;2022-07-17T06:41:47;92821.38;;;44.95;10.82
61963;BME280;47927;42.646;23.096;2022-07-17T06:44:14;92818.75;;;44.87;10.44
61963;BME280;47927;42.646;23.096;2022-07-17T06:46:40;92820.78;;;43.59;10.67
61963;BME280;47927;42.646;23.096;2022-07-17T06:49:05;92828.41;;;42.95;10.65
61963;BME280;47927;42.646;23.096;2022-07-17T06:51:31;92823.56;;;43.19;10.83
61963;BME280;47927;42.646;23.096;2022-07-17T06:53:57;92832.44;;;43.92;10.89
61963;BME280;47927;42.646;23.096;2022-07-17T06:56:22;92831.56;;;43.32;10.90
61963;BME280;47927;42.646;23.096;2022-07-17T06:58:48;92831.59;;;43.82;10.90
61963;BME280;47927;42.646;23.096;2022-07-17T07:01:32;92835.50;;;44.82;10.31
61963;BME280;47927;42.646;23.096;2022-07-17T07:03:58;92836.53;;;44.69;10.03
61963;BME280;47927;42.646;23.096;2022-07-17T07:06:23;92839.03;;;45.36;9.96
61963;BME280;47927;42.646;23.096;2022-07-17T07:08:49;92838.44;;;45.28;10.92
61963;BME280;47927;42.646;23.096;2022-07-17T07:11:14;92840.28;;;45.80;9.63
61963;BME280;47927;42.646;23.096;2022-07-17T07:13:40;92840.16;;;46.44;9.27
61963;BME280;47927;42.646;23.096;2022-07-17T07:16:05;92837.38;;;45.23;9.78
61963;BME280;47927;42.646;23.096;2022-07-17T07:18:31;92846.31;;;45.41;8.94
61963;BME280;47927;42.646;23.096;2022-07-17T07:20:56;92847.41;;;45.29;10.06
61963;BME280;47927;42.646;23.096;2022-07-17T07:23:22;92843.94;;;45.55;9.16
61963;BME280;47927;42.646;23.096;2022-07-17T07:25:47;92840.00;;;45.85;9.41
61963;BME280;47927;42.646;23.096;2022-07-17T07:28:13;92840.50;;;45.37;9.43
61963;BME280;47927;42.646;23.096;2022-07-17T07:30:38;92847.97;;;45.81;9.25
61963;BME280;47927;42.646;23.096;2022-07-17T07:33:04;92849.47;;;46.58;8.98
61963;BME280;47927;42.646;23.096;2022-07-17T07:35:29;92852.72;;;46.18;8.87
61963;BME280;47927;42.646;23.096;2022-07-17T07:37:55;92850.91;;;46.30;9.33
61963;BME280;47927;42.646;23.096;2022-07-17T07:40:21;92850.78;;;46.47;8.46
61963;BME280;47927;42.646;23.096;2022-07-17T07:42:46;92853.66;;;46.30;9.21
61963;BME280;47927;42.646;23.096;2022-07-17T07:45:12;92855.41;;;46.35;8.89
61963;BME280;47927;42.646;23.096;2022-07-17T07:47:42;92856.59;;;46.90;8.53
61963;BME280;47927;42.646;23.096;2022-07-17T07:50:09;92856.22;;;46.18;9.82
61963;BME280;47927;42.646;23.096;2022-07-17T07:52:35;92860.47;;;46.48;8.81
61963;BME280;47927;42.646;23.096;2022-07-17T07:55:00;92856.91;;;46.09;9.53
61963;BME280;47927;42.646;23.096;2022-07-17T07:57:26;92865.69;;;45.61;9.71
61963;BME280;47927;42.646;23.096;2022-07-17T07:59:51;92864.63;;;43.67;11.07
61963;BME280;47927;42.646;23.096;2022-07-17T08:02:17;92860.50;;;41.78;11.88
61963;BME280;47927;42.646;23.096;2022-07-17T08:04:42;92853.47;;;39.46;13.65
61963;BME280;47927;42.646;23.096;2022-07-17T08:07:08;92858.31;;;38.52;14.42
61963;BME280;47927;42.646;23.096;2022-07-17T08:09:33;92849.09;;;37.51;15.99
61963;BME280;47927;42.646;23.096;2022-07-17T08:11:59;92856.91;;;37.03;16.40
61963;BME280;47927;42.646;23.096;2022-07-17T08:14:24;92859.75;;;36.92;15.77
61963;BME280;47927;42.646;23.096;2022-07-17T08:16:50;92847.34;;;38.44;15.16
61963;BME280;47927;42.646;23.096;2022-07-17T08:19:16;92845.16;;;40.35;13.76
61963;BME280;47927;42.646;23.096;2022-07-17T08:21:41;92847.41;;;41.25;13.31
61963;BME280;47927;42.646;23.096;2022-07-17T08:24:07;92857.59;;;42.37;12.18
61963;BME280;47927;42.646;23.096;2022-07-17T08:26:32;92859.66;;;42.92;11.94
61963;BME280;47927;42.646;23.096;2022-07-17T08:28:58;92860.50;;;43.18;10.69
61963;BME280;47927;42.646;23.096;2022-07-17T08:31:23;92861.81;;;43.50;11.46
61963;BME280;47927;42.646;23.096;2022-07-17T08:33:50;92868.41;;;43.79;11.11
61963;BME280;47927;42.646;23.096;2022-07-17T08:36:16;92874.88;;;43.66;10.67
61963;BME280;47927;42.646;23.096;2022-07-17T08:38:42;92868.09;;;43.35;10.64
61963;BME280;47927;42.646;23.096;2022-07-17T08:41:08;92869.09;;;43.07;11.02
61963;BME280;47927;42.646;23.096;2022-07-17T08:43:35;92863.34;;;43.68;10.62
61963;BME280;47927;42.646;23.096;2022-07-17T08:46:02;92863.00;;;43.64;10.90
61963;BME280;47927;42.646;23.096;2022-07-17T08:48:27;92861.72;;;42.76;11.12
61963;BME280;47927;42.646;23.096;2022-07-17T08:50:53;92859.22;;;42.25;12.11
61963;BME280;47927;42.646;23.096;2022-07-17T08:53:21;92861.59;;;42.44;11.34
61963;BME280;47927;42.646;23.096;2022-07-17T08:55:47;92870.75;;;42.31;11.53
61963;BME280;47927;42.646;23.096;2022-07-17T08:58:17;92845.34;;;41.77;12.54
61963;BME280;47927;42.646;23.096;2022-07-17T09:00:43;92851.22;;;41.88;13.53
61963;BME280;47927;42.646;23.096;2022-07-17T09:03:09;92845.88;;;41.00;14.07
61963;BME280;47927;42.646;23.096;2022-07-17T09:05:37;92826.19;;;41.02;13.31
61963;BME280;47927;42.646;23.096;2022-07-17T09:08:05;92842.28;;;41.06;12.82
61963;BME280;47927;42.646;23.096;2022-07-17T09:10:35;92845.41;;;41.25;13.69
61963;BME280;47927;42.646;23.096;2022-07-17T09:13:12;92852.22;;;40.95;12.93
61963;BME280;47927;42.646;23.096;2022-07-17T09:15:38;92847.91;;;41.08;13.39
61963;BME280;47927;42.646;23.096;2022-07-17T09:18:03;92849.59;;;41.18;13.76
61963;BME280;47927;42.646;23.096;2022-07-17T09:20:29;92841.38;;;40.17;14.34
61963;BME280;47927;42.646;23.096;2022-07-17T09:23:04;92829.00;;;39.32;15.31
61963;BME280;47927;42.646;23.096;2022-07-17T09:25:41;92846.97;;;40.12;14.27
61963;BME280;47927;42.646;23.096;2022-07-17T09:28:09;92842.94;;;40.33;15.12
61963;BME280;47927;42.646;23.096;2022-07-17T09:30:37;92847.66;;;40.25;14.23
61963;BME280;47927;42.646;23.096;2022-07-17T09:33:06;92845.31;;;38.98;14.67
61963;BME280;47927;42.646;23.096;2022-07-17T09:35:32;92838.31;;;38.63;15.32
61963;BME280;47927;42.646;23.096;2022-07-17T09:37:57;92846.34;;;38.02;15.52
61963;BME280;47927;42.646;23.096;2022-07-17T09:40:23;92838.44;;;38.70;14.71
61963;BME280;47927;42.646;23.096;2022-07-17T09:43:08;92843.94;;;39.05;15.06
61963;BME280;47927;42.646;23.096;2022-07-17T09:45:34;92844.69;;;39.39;15.54
61963;BME280;47927;42.646;23.096;2022-07-17T09:48:00;92837.66;;;39.10;15.06
61963;BME280;47927;42.646;23.096;2022-07-17T09:50:27;92838.59;;;39.68;14.65
61963;BME280;47927;42.646;23.096;2022-07-17T09:53:12;92845.19;;;39.72;15.86
61963;BME280;47927;42.646;23.096;2022-07-17T09:55:39;92846.91;;;39.62;13.99
61963;BME280;47927;42.646;23.096;2022-07-17T09:58:06;92831.25;;;39.41;14.72
61963;BME280;47927;42.646;23.096;2022-07-17T10:00:35;92842.41;;;38.56;16.09
61963;BME280;47927;42.646;23.096;2022-07-17T10:03:00;92838.53;;;38.65;15.97
61963;BME280;47927;42.646;23.096;2022-07-17T10:05:26;92836.03;;;38.40;15.88
61963;BME280;47927;42.646;23.096;2022-07-17T10:07:52;92842.72;;;38.39;15.75
61963;BME280;47927;42.646;23.096;2022-07-17T10:10:18;92829.19;;;38.07;15.34
61963;BME280;47927;42.646;23.096;2022-07-17T10:12:47;92830.84;;;38.10;15.78
61963;BME280;47927;42.646;23.096;2022-07-17T10:15:13;92834.75;;;37.69;16.45
61963;BME280;47927;42.646;23.096;2022-07-17T10:17:39;92832.19;;;37.07;17.68
61963;BME280;47927;42.646;23.096;2022-07-17T10:20:05;92831.50;;;34.42;19.12
61963;BME280;47927;42.646;23.096;2022-07-17T10:22:45;92823.81;;;35.16;18.12
61963;BME280;47927;42.646;23.096;2022-07-17T10:25:14;92820.88;;;35.86;19.13
61963;BME280;47927;42.646;23.096;2022-07-17T10:27:47;92832.59;;;34.86;18.87
61963;BME280;47927;42.646;23.096;2022-07-17T10:30:19;92829.13;;;33.32;19.87
61963;BME280;47927;42.646;23.096;2022-07-17T10:32:54;92820.78;;;33.86;20.21
61963;BME280;47927;42.646;23.096;2022-07-17T10:35:21;92816.84;;;34.85;20.09
61963;BME280;47927;42.646;23.096;2022-07-17T10:37:46;92823.88;;;35.82;17.62
61963;BME280;47927;42.646;23.096;2022-07-17T10:40:22;92822.13;;;35.13;19.63
61963;BME280;47927;42.646;23.096;2022-07-17T10:43:04;92818.34;;;33.54;20.81
61963;BME280;47927;42.646;23.096;2022-07-17T10:45:44;92817.09;;;33.89;20.73
61963;BME280;47927;42.646;23.096;2022-07-17T10:48:11;92815.13;;;34.82;19.34
61963;BME280;47927;42.646;23.096;2022-07-17T10:50:43;92811.16;;;35.35;18.58
61963;BME280;47927;42.646;23.096;2022-07-17T10:55:47;92809.03;;;35.53;18.44
61963;BME280;47927;42.646;23.096;2022-07-17T10:58:17;92797.84;;;34.32;18.63
61963;BME280;47927;42.646;23.096;2022-07-17T11:00:43;92800.31;;;34.36;19.70
61963;BME280;47927;42.646;23.096;2022-07-17T11:03:20;92810.59;;;34.43;20.39
61963;BME280;47927;42.646;23.096;2022-07-17T11:05:45;92816.91;;;34.74;20.26
61963;BME280;47927;42.646;23.096;2022-07-17T11:08:11;92807.72;;;34.88;19.11
61963;BME280;47927;42.646;23.096;2022-07-17T11:10:37;92806.38;;;35.47;18.27
61963;BME280;47927;42.646;23.096;2022-07-17T11:13:14;92802.00;;;35.38;19.08
61963;BME280;47927;42.646;23.096;2022-07-17T11:15:46;92797.63;;;35.66;17.29
61963;BME280;47927;42.646;23.096;2022-07-17T11:18:20;92791.44;;;35.95;18.14
61963;BME280;47927;42.646;23.096;2022-07-17T11:20:54;92794.63;;;35.99;18.22
61963;BME280;47927;42.646;23.096;2022-07-17T11:23:21;92786.09;;;35.59;18.95
61963;BME280;47927;42.646;23.096;2022-07-17T11:26:05;92796.16;;;34.87;19.19
61963;BME280;47927;42.646;23.096;2022-07-17T11:28:34;92793.59;;;34.54;19.85
61963;BME280;47927;42.646;23.096;2022-07-17T11:31:01;92790.78;;;34.12;20.07
61963;BME280;47927;42.646;23.096;2022-07-17T11:33:28;92798.94;;;33.73;20.70
61963;BME280;47927;42.646;23.096;2022-07-17T11:35:53;92792.78;;;33.89;19.94
61963;BME280;47927;42.646;23.096;2022-07-17T11:38:29;92788.13;;;33.45;19.94
61963;BME280;47927;42.646;23.096;2022-07-17T11:40:54;92781.47;;;33.40;20.66
61963;BME280;47927;42.646;23.096;2022-07-17T11:43:20;92788.13;;;33.67;21.32
61963;BME280;47927;42.646;23.096;2022-07-17T11:45:46;92786.66;;;33.83;21.04
61963;BME280;47927;42.646;23.096;2022-07-17T11:48:12;92781.72;;;34.10;20.82
61963;BME280;47927;42.646;23.096;2022-07-17T11:50:38;92773.84;;;33.89;20.99
61963;BME280;47927;42.646;23.096;2022-07-17T11:53:05;92783.97;;;34.69;20.13
61963;BME280;47927;42.646;23.096;2022-07-17T11:55:38;92772.44;;;34.63;19.27
61963;BME280;47927;42.646;23.096;2022-07-17T11:58:04;92770.22;;;34.62;20.37
61963;BME280;47927;42.646;23.096;2022-07-17T12:00:29;92775.28;;;34.82;19.83
61963;BME280;47927;42.646;23.096;2022-07-17T12:03:03;92767.78;;;34.58;19.62
61963;BME280;47927;42.646;23.096;2022-07-17T12:05:31;92771.34;;;34.19;19.75
61963;BME280;47927;42.646;23.096;2022-07-17T12:07:57;92769.34;;;34.31;20.46
61963;BME280;47927;42.646;23.096;2022-07-17T12:10:25;92770.19;;;34.67;21.22
61963;BME280;47927;42.646;23.096;2022-07-17T12:12:58;92762.34;;;34.58;19.91
61963;BME280;47927;42.646;23.096;2022-07-17T12:18:00;92766.09;;;34.44;21.67
61963;BME280;47927;42.646;23.096;2022-07-17T12:20:41;92773.28;;;34.36;21.02
61963;BME280;47927;42.646;23.096;2022-07-17T12:23:07;92768.22;;;34.62;20.98
61963;BME280;47927;42.646;23.096;2022-07-17T12:25:33;92766.47;;;34.07;20.67
61963;BME280;47927;42.646;23.096;2022-07-17T12:27:58;92761.06;;;34.07;22.29
61963;BME280;47927;42.646;23.096;2022-07-17T12:30:24;92765.50;;;33.76;23.47
61963;BME280;47927;42.646;23.096;2022-07-17T12:32:49;92766.50;;;33.78;23.73
61963;BME280;47927;42.646;23.096;2022-07-17T12:35:16;92758.91;;;33.66;22.14
61963;BME280;47927;42.646;23.096;2022-07-17T12:37:41;92746.13;;;33.77;22.64
61963;BME280;47927;42.646;23.096;2022-07-17T12:40:08;92748.59;;;33.25;23.21
61963;BME280;47927;42.646;23.096;2022-07-17T12:42:34;92751.28;;;33.19;22.87
61963;BME280;47927;42.646;23.096;2022-07-17T12:44:59;92756.94;;;33.04;22.86
61963;BME280;47927;42.646;23.096;2022-07-17T12:47:25;92764.78;;;33.02;22.63
61963;BME280;47927;42.646;23.096;2022-07-17T12:49:50;92754.13;;;32.59;23.24
61963;BME280;47927;42.646;23.096;2022-07-17T12:52:16;92754.22;;;33.04;23.79
61963;BME280;47927;42.646;23.096;2022-07-17T12:54:41;92759.13;;;33.00;22.78
61963;BME280;47927;42.646;23.096;2022-07-17T12:57:07;92756.88;;;32.76;23.26